Terminal Aerodrome Forecast
Issued by NWS Chicago, IL

Home | Current Version | Previous Version | Text Only | Print | Product List | Glossary Off
Versions: 1 2 3 4 5 6 7 8 9 10 11 12 13 14 15 16 17 18 19 20 21 22 23 24 25 26 27 28 29 30 31 32

000
FTUS43 KLOT 242300
TAFRFD
TAF
KRFD 242339Z 2500/2524 21005KT P6SM FEW060 BKN250
     FM250200 18003KT P6SM BKN250
     FM251300 20009KT P6SM SCT120 BKN200
     FM251600 20011G16KT P6SM VCSH SCT040 BKN120 PROB30 2517/2520
      -TSRA BKN030CB=

USA.gov is the U.S. government's official web portal to all federal, state and local government web resources and services.